createdAt,value
2023-02-25T00:01:54.402Z,99685.88
2023-02-25T00:04:32.344Z,99682.53
2023-02-25T00:07:02.222Z,99685.22
2023-02-25T00:09:31.488Z,99687.00
2023-02-25T00:12:00.029Z,99691.47
2023-02-25T00:14:29.457Z,99694.16
2023-02-25T00:16:58.222Z,99689.06
2023-02-25T00:19:27.518Z,99696.97
2023-02-25T00:21:56.456Z,99693.59
2023-02-25T00:24:26.189Z,99702.34
2023-02-25T00:26:54.690Z,99705.84
2023-02-25T00:29:23.243Z,99709.41
2023-02-25T00:31:52.027Z,99702.56
2023-02-25T00:34:20.654Z,99706.97
2023-02-25T00:36:50.106Z,99703.63
2023-02-25T00:39:19.011Z,99711.47
2023-02-25T00:41:48.620Z,99716.75
2023-02-25T00:44:17.184Z,99721.16
2023-02-25T00:46:45.437Z,99717.81
2023-02-25T00:49:27.031Z,99723.91
2023-02-25T00:52:00.687Z,99719.66
2023-02-25T00:54:29.428Z,99726.63
2023-02-25T00:56:59.028Z,99731.88
2023-02-25T00:59:27.583Z,99738.81
2023-02-25T01:01:56.251Z,99732.78
2023-02-25T01:04:25.475Z,99729.34
2023-02-25T01:06:54.951Z,99735.41
2023-02-25T01:09:23.758Z,99739.75
2023-02-25T01:11:52.305Z,99742.38
2023-02-25T01:14:24.996Z,99736.31
2023-02-25T01:16:56.110Z,99740.66
2023-02-25T01:19:26.488Z,99731.13
2023-02-25T01:21:57.089Z,99734.63
2023-02-25T01:24:28.684Z,99728.56
2023-02-25T01:26:59.003Z,99725.13
2023-02-25T01:29:32.319Z,99727.72
2023-02-25T01:32:03.089Z,99722.50
2023-02-25T01:34:33.081Z,99728.53
2023-02-25T01:37:04.598Z,99732.78
2023-02-25T01:39:34.043Z,99730.13
2023-02-25T01:42:05.091Z,99734.38
2023-02-25T01:44:41.753Z,99728.25
2023-02-25T01:47:21.544Z,99729.09
2023-02-25T01:49:49.949Z,99725.59
2023-02-25T01:52:23.794Z,99728.16
2023-02-25T01:54:55.939Z,99728.91
2023-02-25T01:57:25.629Z,99730.59
2023-02-25T01:59:56.251Z,99722.69
2023-02-25T02:02:29.729Z,99723.47
2023-02-25T02:04:58.417Z,99730.41
2023-02-25T02:07:26.924Z,99732.09
2023-02-25T02:09:56.906Z,99725.16
2023-02-25T02:12:27.359Z,99729.44
2023-02-25T02:15:01.275Z,99729.44
2023-02-25T02:17:36.890Z,99734.59
2023-02-25T02:20:14.075Z,99737.19
2023-02-25T02:23:22.101Z,99733.69
2023-02-25T02:26:38.288Z,99741.56
2023-02-25T02:29:33.781Z,99729.44
2023-02-25T02:32:15.864Z,99738.94
2023-02-25T02:34:53.619Z,99738.09
2023-02-25T02:37:35.921Z,99738.03
2023-02-25T02:40:19.589Z,99740.63
2023-02-25T02:43:01.486Z,99752.75
2023-02-25T02:45:38.070Z,99736.25
2023-02-25T02:48:13.503Z,99739.69
2023-02-25T02:50:46.374Z,99734.47
2023-02-25T02:53:21.241Z,99738.81
2023-02-25T02:55:56.246Z,99740.59
2023-02-25T02:58:30.326Z,99745.84
2023-02-25T03:01:05.508Z,99745.88
2023-02-25T03:03:41.319Z,99747.63
2023-02-25T03:06:15.271Z,99747.63
2023-02-25T03:08:47.663Z,99757.19
2023-02-25T03:11:17.398Z,99755.47
2023-02-25T03:13:47.218Z,99747.69
2023-02-25T03:16:22.671Z,99759.78
2023-02-25T03:18:59.990Z,99757.19
2023-02-25T03:21:35.936Z,99756.31
2023-02-25T03:24:08.993Z,99756.28
2023-02-25T03:26:42.607Z,99750.25
2023-02-25T03:29:17.329Z,99766.78
2023-02-25T03:31:56.513Z,99765.03
2023-02-25T03:34:32.955Z,99766.72
2023-02-25T03:37:06.490Z,99764.97
2023-02-25T03:39:41.214Z,99758.03
2023-02-25T03:42:13.300Z,99764.09
2023-02-25T03:44:49.421Z,99760.59
2023-02-25T03:47:19.182Z,99766.66
2023-02-25T03:49:59.168Z,99762.28
2023-02-25T03:52:29.152Z,99767.47
2023-02-25T03:55:01.921Z,99770.03
2023-02-25T03:57:38.988Z,99768.28
2023-02-25T04:00:16.028Z,99764.81
2023-02-25T04:02:45.685Z,99763.03
2023-02-25T04:05:17.359Z,99765.56
2023-02-25T04:07:45.955Z,99766.38
2023-02-25T04:10:17.185Z,99773.28
2023-02-25T04:12:46.956Z,99783.63
2023-02-25T04:15:15.533Z,99791.38
2023-02-25T04:17:45.114Z,99786.16
2023-02-25T04:20:17.455Z,99789.59
2023-02-25T04:22:46.355Z,99797.41
2023-02-25T04:25:14.848Z,99793.91
2023-02-25T04:27:43.128Z,99793.91
2023-02-25T04:30:13.448Z,99800.00
2023-02-25T04:32:42.121Z,99790.44
2023-02-25T04:35:13.454Z,99803.44
2023-02-25T04:37:43.926Z,99795.66
2023-02-25T04:40:17.838Z,99801.69
2023-02-25T04:42:46.660Z,99797.34
2023-02-25T04:45:16.472Z,99789.56
2023-02-25T04:47:45.394Z,99787.81
2023-02-25T04:50:14.276Z,99783.47
2023-02-25T04:52:43.856Z,99788.66
2023-02-25T04:55:12.958Z,99784.34
2023-02-25T04:57:42.369Z,99780.84
2023-02-25T05:00:19.153Z,99786.91
2023-02-25T05:02:49.056Z,99786.91
2023-02-25T05:05:18.482Z,99780.84
2023-02-25T05:07:48.090Z,99787.75
2023-02-25T05:10:17.568Z,99780.81
2023-02-25T05:12:45.850Z,99783.41
2023-02-25T05:15:14.828Z,99779.09
2023-02-25T05:17:43.093Z,99773.00
2023-02-25T05:20:13.281Z,99775.59
2023-02-25T05:22:42.701Z,99780.81
2023-02-25T05:25:12.905Z,99778.22
2023-02-25T05:27:41.179Z,99781.69
2023-02-25T05:30:11.321Z,99786.91
2023-02-25T05:32:39.934Z,99792.09
2023-02-25T05:35:12.019Z,99794.69
2023-02-25T05:37:40.622Z,99799.06
2023-02-25T05:40:13.964Z,99788.66
2023-02-25T05:42:42.617Z,99793.00
2023-02-25T05:45:12.339Z,99790.44
2023-02-25T05:47:40.847Z,99799.09
2023-02-25T05:50:11.001Z,99796.50
2023-02-25T05:52:39.309Z,99799.16
2023-02-25T05:55:09.941Z,99792.25
2023-02-25T05:57:39.931Z,99782.72
2023-02-25T06:00:14.621Z,99783.63
2023-02-25T06:02:44.244Z,99788.00
2023-02-25T06:05:14.170Z,99787.16
2023-02-25T06:07:42.755Z,99790.66
2023-02-25T06:10:12.837Z,99783.72
2023-02-25T06:12:46.623Z,99788.91
2023-02-25T06:15:15.532Z,99790.69
2023-02-25T06:17:44.093Z,99783.75
2023-02-25T06:20:16.481Z,99777.72
2023-02-25T06:22:44.845Z,99797.59
2023-02-25T06:25:13.561Z,99804.50
2023-02-25T06:27:43.591Z,99796.72
2023-02-25T06:30:13.084Z,99808.81
2023-02-25T06:32:43.639Z,99811.41
2023-02-25T06:35:12.291Z,99803.56
2023-02-25T06:37:40.803Z,99799.22
2023-02-25T06:40:12.398Z,99813.09
2023-02-25T06:42:42.131Z,99814.81
2023-02-25T06:45:11.376Z,99817.41
2023-02-25T06:47:39.851Z,99815.69
2023-02-25T06:50:10.436Z,99825.22
2023-02-25T06:52:39.003Z,99833.00
2023-02-25T06:55:10.068Z,99839.06
2023-02-25T06:57:38.647Z,99846.84
2023-02-25T07:00:10.427Z,99844.19
2023-02-25T07:02:38.682Z,99852.84
2023-02-25T07:05:07.622Z,99849.34
2023-02-25T07:07:36.389Z,99860.59
2023-02-25T07:10:05.658Z,99859.69
2023-02-25T07:12:34.213Z,99862.25
2023-02-25T07:15:03.045Z,99867.41
2023-02-25T07:17:32.639Z,99870.84
2023-02-25T07:20:01.112Z,99868.22
2023-02-25T07:22:29.436Z,99872.50
2023-02-25T07:24:57.993Z,99880.25
2023-02-25T07:27:27.200Z,99869.81
2023-02-25T07:29:56.097Z,99870.59
2023-02-25T07:32:26.049Z,99866.22
2023-02-25T07:34:55.766Z,99874.00
2023-02-25T07:37:24.216Z,99875.66
2023-02-25T07:39:52.721Z,99870.38
2023-02-25T07:42:21.231Z,99873.78
2023-02-25T07:44:50.157Z,99871.16
2023-02-25T07:47:19.309Z,99877.19
2023-02-25T07:49:47.972Z,99887.53
2023-02-25T07:52:17.567Z,99884.06
2023-02-25T07:54:46.136Z,99890.97
2023-02-25T07:57:14.651Z,99885.81
2023-02-25T07:59:43.230Z,99883.22
2023-02-25T08:02:12.514Z,99885.00
2023-02-25T08:04:41.112Z,99888.50
2023-02-25T08:07:09.322Z,99890.19
2023-02-25T08:09:39.082Z,99886.78
2023-02-25T08:12:07.364Z,99894.53
2023-02-25T08:14:35.953Z,99893.63
2023-02-25T08:17:04.484Z,99897.09
2023-02-25T08:19:33.087Z,99880.53
2023-02-25T08:22:01.324Z,99893.47
2023-02-25T08:24:29.892Z,99891.72
2023-02-25T08:26:59.701Z,99895.09
2023-02-25T08:29:28.385Z,99890.69
2023-02-25T08:31:57.046Z,99889.81
2023-02-25T08:34:25.910Z,99886.25
2023-02-25T08:36:54.510Z,99887.91
2023-02-25T08:39:23.615Z,99884.38
2023-02-25T08:41:52.151Z,99886.03
2023-02-25T08:44:21.767Z,99882.41
2023-02-25T08:46:50.526Z,99887.53
2023-02-25T08:49:19.249Z,99873.50
2023-02-25T08:51:50.644Z,99886.38
2023-02-25T08:54:19.247Z,99886.25
2023-02-25T08:56:51.050Z,99885.19
2023-02-25T08:59:21.224Z,99885.94
2023-02-25T09:01:51.631Z,99883.16
2023-02-25T09:04:22.812Z,99888.22
2023-02-25T09:06:54.041Z,99896.03
2023-02-25T09:09:23.508Z,99889.06
2023-02-25T09:11:52.546Z,99883.91
2023-02-25T09:14:22.757Z,99880.53
2023-02-25T09:16:51.884Z,99888.50
2023-02-25T09:19:20.802Z,99888.56
2023-02-25T09:21:49.674Z,99883.34
2023-02-25T09:24:18.874Z,99895.44
2023-02-25T09:26:48.137Z,99895.13
2023-02-25T09:29:16.966Z,99884.91
2023-02-25T09:31:46.676Z,99879.63
2023-02-25T09:34:15.451Z,99879.78
2023-02-25T09:36:44.268Z,99875.19
2023-02-25T09:39:12.727Z,99875.19
2023-02-25T09:41:51.142Z,99879.88
2023-02-25T09:44:22.285Z,99881.13
2023-02-25T09:46:57.414Z,99881.50
2023-02-25T09:49:32.886Z,99881.88
2023-02-25T09:52:08.759Z,99876.94
2023-02-25T09:54:44.872Z,99878.03
2023-02-25T09:57:19.092Z,99886.06
2023-02-25T09:59:48.254Z,99880.91
2023-02-25T10:02:33.911Z,99877.41
2023-02-25T10:05:22.562Z,99886.06
2023-02-25T10:08:03.057Z,99880.63
2023-02-25T10:10:46.671Z,99876.88
2023-02-25T10:13:30.641Z,99879.97
2023-02-25T10:16:11.250Z,99877.06
2023-02-25T10:19:01.775Z,99867.16
2023-02-25T10:21:51.419Z,99870.34
2023-02-25T10:24:31.422Z,99864.13
2023-02-25T10:27:17.203Z,99863.03
2023-02-25T10:29:50.211Z,99859.91
2023-02-25T10:32:23.313Z,99858.84
2023-02-25T10:34:57.896Z,99861.47
2023-02-25T10:37:33.674Z,99863.41
2023-02-25T10:40:10.861Z,99861.03
2023-02-25T10:42:39.791Z,99864.66
2023-02-25T10:45:14.928Z,99856.13
2023-02-25T10:47:48.433Z,99866.69
2023-02-25T10:50:38.808Z,99868.50
2023-02-25T10:53:16.687Z,99864.81
2023-02-25T10:55:55.009Z,99863.44
2023-02-25T10:58:40.790Z,99856.47
2023-02-25T11:01:15.251Z,99854.25
2023-02-25T11:03:54.100Z,99859.28
2023-02-25T11:06:29.125Z,99859.22
2023-02-25T11:08:59.876Z,99862.69
2023-02-25T11:11:32.130Z,99863.63
2023-02-25T11:14:05.158Z,99862.75
2023-02-25T11:16:37.045Z,99868.94
2023-02-25T11:19:16.032Z,99863.19
2023-02-25T11:21:47.148Z,99859.94
2023-02-25T11:24:17.951Z,99867.19
2023-02-25T11:26:48.913Z,99859.59
2023-02-25T11:29:22.988Z,99862.28
2023-02-25T11:31:55.013Z,99865.66
2023-02-25T11:34:27.858Z,99866.41
2023-02-25T11:36:59.853Z,99860.16
2023-02-25T11:39:30.838Z,99855.63
2023-02-25T11:42:03.805Z,99858.16
2023-02-25T11:44:43.479Z,99848.47
2023-02-25T11:47:25.931Z,99850.22
2023-02-25T11:50:27.035Z,99846.09
2023-02-25T11:53:06.447Z,99845.50
2023-02-25T11:55:50.800Z,99846.44
2023-02-25T11:58:33.045Z,99838.59
2023-02-25T12:01:05.734Z,99840.97
2023-02-25T12:04:08.029Z,99841.44
2023-02-25T12:06:55.969Z,99834.63
2023-02-25T12:10:04.463Z,99828.84
2023-02-25T12:13:23.747Z,99826.59
2023-02-25T12:16:30.954Z,99823.50
2023-02-25T12:19:55.412Z,99819.19
2023-02-25T12:23:09.646Z,99822.50
2023-02-25T12:25:50.865Z,99820.09
2023-02-25T12:29:06.950Z,99812.69
2023-02-25T12:32:16.186Z,99804.00
2023-02-25T12:35:23.196Z,99797.06
2023-02-25T12:38:33.932Z,99792.69
2023-02-25T12:41:25.248Z,99795.84
2023-02-25T12:44:09.242Z,99799.69
2023-02-25T12:47:03.093Z,99800.06
2023-02-25T12:50:07.253Z,99793.22
2023-02-25T12:52:47.426Z,99801.22
2023-02-25T12:55:46.919Z,99794.53
2023-02-25T12:58:34.596Z,99802.59
2023-02-25T13:01:28.179Z,99809.78
2023-02-25T13:04:26.811Z,99824.72
2023-02-25T13:07:34.073Z,99848.03
2023-02-25T13:10:29.983Z,99841.47
2023-02-25T13:14:01.834Z,99853.84
2023-02-25T13:16:50.287Z,99850.09
2023-02-25T13:19:57.378Z,99855.88
2023-02-25T13:22:50.650Z,99862.09
2023-02-25T13:25:28.736Z,99857.47
2023-02-25T13:28:30.595Z,99851.50
2023-02-25T13:31:08.365Z,99859.22
2023-02-25T13:34:08.374Z,99855.00
2023-02-25T13:37:17.651Z,99858.09
2023-02-25T13:40:20.514Z,99855.91
2023-02-25T13:43:33.693Z,99851.72
2023-02-25T13:46:18.605Z,99847.38
2023-02-25T13:49:29.881Z,99849.09
2023-02-25T13:52:22.245Z,99842.06
2023-02-25T13:55:34.802Z,99841.22
2023-02-25T13:58:31.778Z,99855.34
2023-02-25T14:01:27.838Z,99852.78
2023-02-25T14:05:00.314Z,99850.88
2023-02-25T14:08:13.856Z,99857.75
2023-02-25T14:10:55.331Z,99852.47
2023-02-25T14:13:59.443Z,99840.03
2023-02-25T14:16:55.442Z,99844.41
2023-02-25T14:19:35.886Z,99850.31
2023-02-25T14:22:37.917Z,99848.63
2023-02-25T14:25:27.913Z,99836.47
2023-02-25T14:28:08.290Z,99846.59
2023-02-25T14:30:52.678Z,99841.09
2023-02-25T14:33:43.279Z,99831.88
2023-02-25T14:36:36.497Z,99841.06
2023-02-25T14:39:27.592Z,99844.13
2023-02-25T14:42:13.511Z,99838.47
2023-02-25T14:44:46.293Z,99852.81
2023-02-25T14:47:23.654Z,99850.66
2023-02-25T14:50:01.489Z,99856.72
2023-02-25T14:53:17.508Z,99856.59
2023-02-25T14:56:37.154Z,99868.94
2023-02-25T14:59:48.226Z,99862.75
2023-02-25T15:02:30.743Z,99867.22
2023-02-25T15:05:55.277Z,99870.06
2023-02-25T15:09:13.294Z,99868.66
2023-02-25T15:11:57.316Z,99876.31
2023-02-25T15:14:58.978Z,99879.50
2023-02-25T15:18:29.795Z,99888.59
2023-02-25T15:20:58.732Z,99899.28
2023-02-25T15:23:43.238Z,99901.88
2023-02-25T15:26:27.205Z,99903.56
2023-02-25T15:28:56.759Z,99906.72
2023-02-25T15:31:31.226Z,99913.22
2023-02-25T15:34:55.696Z,99944.16
2023-02-25T15:37:37.374Z,99953.13
2023-02-25T15:40:47.821Z,99959.50
2023-02-25T15:43:43.477Z,99967.22
2023-02-25T15:46:44.130Z,99961.56
2023-02-25T15:49:34.017Z,99966.84
2023-02-25T15:52:05.353Z,99968.34
2023-02-25T15:54:52.925Z,99967.91
2023-02-25T15:57:38.941Z,99979.50
2023-02-25T16:00:54.688Z,99981.56
2023-02-25T16:03:42.339Z,99988.72
2023-02-25T16:06:21.187Z,99987.94
2023-02-25T16:08:59.615Z,99988.00
2023-02-25T16:11:37.680Z,99982.81
2023-02-25T16:14:12.959Z,100000.22
2023-02-25T16:16:48.070Z,100002.91
2023-02-25T16:19:20.397Z,100002.97
2023-02-25T16:21:54.958Z,100009.09
2023-02-25T16:24:24.004Z,100010.97
2023-02-25T16:26:59.814Z,100011.91
2023-02-25T16:29:53.250Z,100017.31
2023-02-25T16:32:36.442Z,100020.09
2023-02-25T16:35:11.174Z,100027.19
2023-02-25T16:37:45.796Z,100034.31
2023-02-25T16:40:21.442Z,100032.78
2023-02-25T16:42:50.191Z,100045.03
2023-02-25T16:45:27.957Z,100055.53
2023-02-25T16:48:01.853Z,100052.16
2023-02-25T16:50:32.400Z,100060.09
2023-02-25T16:53:03.329Z,100059.34
2023-02-25T16:55:39.968Z,100065.56
2023-02-25T16:58:23.604Z,100069.09
2023-02-25T17:00:54.431Z,100066.56
2023-02-25T17:03:27.083Z,100070.94
2023-02-25T17:06:15.518Z,100080.56
2023-02-25T17:08:47.394Z,100084.88
2023-02-25T17:11:18.867Z,100092.69
2023-02-25T17:13:49.570Z,100089.25
2023-02-25T17:16:24.884Z,100090.19
2023-02-25T17:18:59.103Z,100099.72
2023-02-25T17:21:30.432Z,100110.13
2023-02-25T17:24:01.756Z,100102.41
2023-02-25T17:26:31.651Z,100110.22
2023-02-25T17:29:03.184Z,100105.06
2023-02-25T17:31:32.106Z,100119.84
2023-02-25T17:34:04.527Z,100129.41
2023-02-25T17:36:39.231Z,100134.63
2023-02-25T17:39:12.718Z,100132.88
2023-02-25T17:41:43.195Z,100148.47
2023-02-25T17:44:12.155Z,100138.13
2023-02-25T17:46:44.658Z,100156.34
2023-02-25T17:49:26.728Z,100164.16
2023-02-25T17:51:58.162Z,100167.63
2023-02-25T17:54:29.690Z,100165.94
2023-02-25T17:57:00.919Z,100167.66
2023-02-25T17:59:40.911Z,100172.88
2023-02-25T18:02:39.206Z,100172.84
2023-02-25T18:05:23.783Z,100184.97
2023-02-25T18:08:09.830Z,100181.50
2023-02-25T18:10:46.019Z,100188.44
2023-02-25T18:13:24.876Z,100191.88
2023-02-25T18:16:29.164Z,100191.88
2023-02-25T18:18:59.794Z,100200.50
2023-02-25T18:21:29.838Z,100199.66
2023-02-25T18:24:00.303Z,100203.97
2023-02-25T18:26:28.968Z,100203.97
2023-02-25T18:28:58.423Z,100205.69
2023-02-25T18:31:27.253Z,100205.69
2023-02-25T18:33:55.555Z,100205.69
2023-02-25T18:36:27.314Z,100209.16
2023-02-25T18:39:03.623Z,100215.19
2023-02-25T18:41:33.548Z,100221.25
2023-02-25T18:44:02.458Z,100223.00
2023-02-25T18:46:31.108Z,100229.06
2023-02-25T18:48:59.625Z,100240.31
2023-02-25T18:51:28.307Z,100252.44
2023-02-25T18:53:57.840Z,100254.16
2023-02-25T18:56:26.547Z,100247.28
2023-02-25T18:58:57.378Z,100266.31
2023-02-25T19:01:29.457Z,100263.75
2023-02-25T19:03:59.940Z,100260.28
2023-02-25T19:06:30.781Z,100259.44
2023-02-25T19:09:00.822Z,100269.81
2023-02-25T19:11:35.789Z,100268.94
2023-02-25T19:14:05.783Z,100268.13
2023-02-25T19:16:34.319Z,100276.75
2023-02-25T19:19:02.886Z,100278.50
2023-02-25T19:21:32.010Z,100277.59
2023-02-25T19:24:01.652Z,100284.53
2023-02-25T19:26:30.594Z,100283.69
2023-02-25T19:29:01.177Z,100286.28
2023-02-25T19:31:29.815Z,100298.34
2023-02-25T19:33:58.308Z,100294.88
2023-02-25T19:36:27.022Z,100293.16
2023-02-25T19:38:55.814Z,100297.47
2023-02-25T19:41:25.736Z,100303.50
2023-02-25T19:43:54.257Z,100310.41
2023-02-25T19:46:22.702Z,100315.59
2023-02-25T19:48:51.463Z,100326.81
2023-02-25T19:51:19.936Z,100328.53
2023-02-25T19:53:48.663Z,100336.28
2023-02-25T19:56:17.875Z,100342.34
2023-02-25T19:58:47.510Z,100337.16
2023-02-25T20:01:16.216Z,100350.94
2023-02-25T20:03:44.523Z,100343.19
2023-02-25T20:06:13.626Z,100352.63
2023-02-25T20:08:42.659Z,100353.53
2023-02-25T20:11:12.026Z,100359.53
2023-02-25T20:13:40.537Z,100368.13
2023-02-25T20:16:10.409Z,100360.38
2023-02-25T20:18:38.998Z,100369.88
2023-02-25T20:21:07.909Z,100375.03
2023-02-25T20:23:37.824Z,100370.69
2023-02-25T20:26:09.611Z,100375.84
2023-02-25T20:28:38.299Z,100383.59
2023-02-25T20:31:10.385Z,100377.53
2023-02-25T20:33:39.654Z,100381.84
2023-02-25T20:36:21.764Z,100381.84
2023-02-25T20:39:16.654Z,100380.09
2023-02-25T20:41:47.130Z,100386.13
2023-02-25T20:44:16.606Z,100384.38
2023-02-25T20:46:46.796Z,100392.16
2023-02-25T20:49:18.898Z,100393.84
2023-02-25T20:51:48.811Z,100391.28
2023-02-25T20:54:19.800Z,100402.47
2023-02-25T20:56:50.801Z,100401.56
2023-02-25T20:59:20.011Z,100397.28
2023-02-25T21:01:49.759Z,100409.31
2023-02-25T21:04:18.301Z,100411.03
2023-02-25T21:06:46.817Z,100411.88
2023-02-25T21:09:15.618Z,100424.81
2023-02-25T21:11:44.125Z,100423.91
2023-02-25T21:14:12.645Z,100417.00
2023-02-25T21:16:41.489Z,100428.22
2023-02-25T21:19:11.179Z,100435.06
2023-02-25T21:21:39.513Z,100439.38
2023-02-25T21:24:12.332Z,100432.41
2023-02-25T21:26:40.904Z,100442.75
2023-02-25T21:29:09.662Z,100439.31
2023-02-25T21:31:38.261Z,100437.56
2023-02-25T21:34:09.102Z,100436.66
2023-02-25T21:36:38.981Z,100438.38
2023-02-25T21:39:09.141Z,100446.13
2023-02-25T21:41:44.324Z,100448.69
2023-02-25T21:44:14.409Z,100452.13
2023-02-25T21:46:43.588Z,100445.22
2023-02-25T21:49:12.133Z,100441.75
2023-02-25T21:51:41.755Z,100442.63
2023-02-25T21:54:10.388Z,100452.06
2023-02-25T21:56:39.057Z,100453.78
2023-02-25T21:59:07.864Z,100458.91
2023-02-25T22:01:40.299Z,100458.06
2023-02-25T22:04:09.718Z,100464.06
2023-02-25T22:06:38.551Z,100458.84
2023-02-25T22:09:08.163Z,100460.59
2023-02-25T22:11:38.870Z,100457.97
2023-02-25T22:14:09.663Z,100457.06
2023-02-25T22:16:39.919Z,100463.94
2023-02-25T22:19:08.489Z,100462.22
2023-02-25T22:21:37.625Z,100464.81
2023-02-25T22:24:08.239Z,100469.94
2023-02-25T22:26:37.778Z,100466.50
2023-02-25T22:29:09.180Z,100465.56
2023-02-25T22:31:37.872Z,100474.19
2023-02-25T22:34:08.093Z,100470.72
2023-02-25T22:36:36.765Z,100472.44
2023-02-25T22:39:06.852Z,100475.84
2023-02-25T22:41:37.814Z,100477.56
2023-02-25T22:44:06.786Z,100477.53
2023-02-25T22:46:37.515Z,100478.34
2023-02-25T22:49:06.834Z,100481.78
2023-02-25T22:51:40.458Z,100485.19
2023-02-25T22:54:09.044Z,100491.19
2023-02-25T22:56:39.291Z,100482.56
2023-02-25T22:59:08.256Z,100479.09
2023-02-25T23:01:36.981Z,100490.25
2023-02-25T23:04:07.333Z,100488.50
2023-02-25T23:06:45.185Z,100486.75
2023-02-25T23:09:14.838Z,100476.41
2023-02-25T23:11:45.624Z,100484.13
2023-02-25T23:14:15.343Z,100490.09
2023-02-25T23:16:45.934Z,100496.09
2023-02-25T23:19:17.180Z,100495.19
2023-02-25T23:21:46.207Z,100499.47
2023-02-25T23:24:17.334Z,100495.97
2023-02-25T23:26:50.354Z,100505.41
2023-02-25T23:29:19.470Z,100503.66
2023-02-25T23:31:49.718Z,100504.50
2023-02-25T23:34:22.762Z,100507.03
2023-02-25T23:36:51.845Z,100507.88
2023-02-25T23:39:20.376Z,100502.72
2023-02-25T23:41:50.208Z,100504.44
2023-02-25T23:44:18.703Z,100502.66
2023-02-25T23:46:47.369Z,100506.06
2023-02-25T23:49:17.652Z,100503.44
2023-02-25T23:51:48.487Z,100503.41
2023-02-25T23:54:19.292Z,100505.97
2023-02-25T23:56:49.842Z,100507.72
2023-02-25T23:59:18.396Z,100516.34
